createdAt,value
2019-03-30T00:01:29.414Z,86.50
2019-03-30T00:03:31.642Z,88.50
2019-03-30T00:05:33.845Z,89.00
2019-03-30T00:07:36.073Z,90.40
2019-03-30T00:09:38.605Z,90.40
2019-03-30T00:11:41.069Z,91.10
2019-03-30T00:13:43.590Z,91.10
2019-03-30T00:15:45.814Z,90.10
2019-03-30T00:17:48.045Z,91.30
2019-03-30T00:19:50.550Z,91.30
2019-03-30T00:21:52.766Z,91.60
2019-03-30T00:23:54.994Z,91.40
2019-03-30T00:25:57.209Z,91.60
2019-03-30T00:27:59.438Z,92.70
2019-03-30T00:30:01.677Z,92.00
2019-03-30T00:32:03.989Z,91.20
2019-03-30T00:34:06.223Z,91.00
2019-03-30T00:36:08.442Z,90.90
2019-03-30T00:38:10.945Z,91.70
2019-03-30T00:40:13.167Z,93.80
2019-03-30T00:42:15.387Z,95.20
2019-03-30T00:44:17.619Z,93.80
2019-03-30T00:46:19.829Z,94.80
2019-03-30T00:48:22.060Z,94.80
2019-03-30T00:50:24.681Z,94.30
2019-03-30T00:52:26.894Z,94.90
2019-03-30T00:54:29.128Z,95.70
2019-03-30T00:56:31.366Z,94.00
2019-03-30T00:58:33.590Z,93.80
2019-03-30T01:00:35.813Z,93.20
2019-03-30T01:02:38.262Z,93.80
2019-03-30T01:04:40.484Z,93.80
2019-03-30T01:06:42.692Z,93.80
2019-03-30T01:08:45.455Z,92.40
2019-03-30T01:10:47.920Z,92.20
2019-03-30T01:12:50.140Z,90.60
2019-03-30T01:14:52.366Z,92.10
2019-03-30T01:16:54.579Z,91.30
2019-03-30T01:18:57.034Z,92.80
2019-03-30T01:20:59.257Z,94.20
2019-03-30T01:23:01.478Z,95.80
2019-03-30T01:25:04.818Z,96.90
2019-03-30T01:27:07.381Z,96.40
2019-03-30T01:29:09.614Z,95.90
2019-03-30T01:31:11.820Z,92.10
2019-03-30T01:33:14.024Z,92.90
2019-03-30T01:35:16.338Z,94.90
2019-03-30T01:37:18.933Z,94.00
2019-03-30T01:39:21.158Z,94.70
2019-03-30T01:41:23.397Z,95.20
2019-03-30T01:43:25.623Z,95.70
2019-03-30T01:45:27.949Z,97.30
2019-03-30T01:47:30.160Z,97.60
2019-03-30T01:49:32.394Z,97.50
2019-03-30T01:51:34.617Z,97.30
2019-03-30T01:53:36.837Z,97.10
2019-03-30T01:55:39.061Z,97.60
2019-03-30T01:57:41.600Z,96.10
2019-03-30T01:59:43.830Z,94.50
2019-03-30T02:01:46.050Z,96.80
2019-03-30T02:03:48.282Z,98.10
2019-03-30T02:05:50.502Z,96.90
2019-03-30T02:07:52.741Z,99.80
2019-03-30T02:09:54.971Z,98.80
2019-03-30T02:11:57.189Z,98.50
2019-03-30T02:13:59.425Z,97.40
2019-03-30T02:16:01.649Z,96.90
2019-03-30T02:18:04.022Z,96.00
2019-03-30T02:20:06.674Z,96.10
2019-03-30T02:22:08.889Z,94.80
2019-03-30T02:24:11.120Z,92.30
2019-03-30T02:26:13.336Z,91.50
2019-03-30T02:28:15.563Z,91.60
2019-03-30T02:30:17.781Z,92.10
2019-03-30T02:32:20.401Z,92.40
2019-03-30T02:34:22.624Z,92.90
2019-03-30T02:36:24.832Z,93.40
2019-03-30T02:38:27.088Z,91.50
2019-03-30T02:40:29.316Z,90.50
2019-03-30T02:42:31.537Z,90.80
2019-03-30T02:44:33.797Z,91.90
2019-03-30T02:46:36.009Z,93.50
2019-03-30T02:48:38.231Z,94.30
2019-03-30T02:50:49.559Z,93.30
2019-03-30T02:52:44.573Z,93.70
2019-03-30T02:54:46.804Z,94.10
2019-03-30T02:56:49.090Z,96.10
2019-03-30T02:58:51.346Z,97.40
2019-03-30T03:00:53.813Z,97.70
2019-03-30T03:02:56.147Z,98.10
2019-03-30T03:04:58.468Z,97.80
2019-03-30T03:07:00.686Z,97.10
2019-03-30T03:09:05.977Z,95.70
2019-03-30T03:11:08.229Z,97.30
2019-03-30T03:13:10.552Z,97.60
2019-03-30T03:15:12.857Z,96.50
2019-03-30T03:17:15.091Z,97.00
2019-03-30T03:19:17.310Z,97.60
2019-03-30T03:21:19.542Z,96.70
2019-03-30T03:23:22.086Z,96.60
2019-03-30T03:25:24.322Z,97.00
2019-03-30T03:27:26.542Z,95.40
2019-03-30T03:29:28.759Z,95.70
2019-03-30T03:31:30.992Z,95.30
2019-03-30T03:33:33.523Z,94.40
2019-03-30T03:35:35.751Z,94.60
2019-03-30T03:37:45.325Z,93.70
2019-03-30T03:39:42.099Z,93.80
2019-03-30T03:41:44.330Z,92.10
2019-03-30T03:43:47.144Z,92.60
2019-03-30T03:45:49.475Z,92.20
2019-03-30T03:47:51.694Z,93.40
2019-03-30T03:49:53.910Z,93.00
2019-03-30T03:51:56.375Z,93.50
2019-03-30T03:53:58.695Z,93.90
2019-03-30T03:56:01.204Z,92.60
2019-03-30T03:58:04.288Z,93.50
2019-03-30T04:00:07.015Z,93.70
2019-03-30T04:02:09.661Z,92.80
2019-03-30T04:04:12.218Z,95.20
2019-03-30T04:06:14.757Z,94.30
2019-03-30T04:08:17.266Z,95.00
2019-03-30T04:10:19.738Z,96.90
2019-03-30T04:12:22.922Z,95.70
2019-03-30T04:14:25.178Z,95.00
2019-03-30T04:16:27.503Z,90.90
2019-03-30T04:18:29.750Z,91.80
2019-03-30T04:20:31.977Z,92.50
2019-03-30T04:22:34.497Z,91.90
2019-03-30T04:24:37.039Z,92.60
2019-03-30T04:26:39.261Z,95.50
2019-03-30T04:28:41.495Z,96.60
2019-03-30T04:30:43.721Z,96.80
2019-03-30T04:32:45.939Z,98.00
2019-03-30T04:34:48.462Z,97.20
2019-03-30T04:36:50.694Z,97.50
2019-03-30T04:38:52.913Z,99.40
2019-03-30T04:40:55.145Z,99.20
2019-03-30T04:42:57.361Z,99.40
2019-03-30T04:44:59.590Z,99.60
2019-03-30T04:47:01.826Z,99.90
2019-03-30T04:49:04.045Z,99.90
2019-03-30T04:51:06.285Z,98.90
2019-03-30T04:53:08.866Z,97.60
2019-03-30T04:55:11.086Z,97.60
2019-03-30T04:57:13.333Z,96.90
2019-03-30T04:59:15.866Z,96.90
2019-03-30T05:01:18.093Z,96.50
2019-03-30T05:03:20.313Z,94.60
2019-03-30T05:05:22.875Z,94.80
2019-03-30T05:07:25.097Z,96.00
2019-03-30T05:09:27.318Z,95.40
2019-03-30T05:11:29.549Z,95.40
2019-03-30T05:13:34.085Z,95.50
2019-03-30T05:15:36.306Z,96.00
2019-03-30T05:17:47.398Z,95.80
2019-03-30T05:19:42.645Z,95.20
2019-03-30T05:21:44.868Z,94.60
2019-03-30T05:23:47.357Z,94.20
2019-03-30T05:25:49.569Z,93.90
2019-03-30T05:27:51.797Z,94.30
2019-03-30T05:29:54.382Z,93.90
2019-03-30T05:31:56.936Z,94.10
2019-03-30T05:33:59.163Z,94.70
2019-03-30T05:36:01.401Z,95.40
2019-03-30T05:38:04.043Z,96.70
2019-03-30T05:40:06.890Z,96.30
2019-03-30T05:42:09.104Z,95.10
2019-03-30T05:44:11.318Z,94.80
2019-03-30T05:46:13.530Z,94.80
2019-03-30T05:48:15.757Z,95.30
2019-03-30T05:50:17.977Z,95.00
2019-03-30T05:52:26.298Z,95.60
2019-03-30T05:54:24.348Z,96.20
2019-03-30T05:56:26.578Z,96.80
2019-03-30T05:58:28.814Z,96.90
2019-03-30T06:00:31.033Z,97.60
2019-03-30T06:02:33.268Z,98.50
2019-03-30T06:04:35.484Z,98.80
2019-03-30T06:06:38.226Z,99.90
2019-03-30T06:08:40.792Z,99.90
2019-03-30T06:10:43.021Z,99.90
2019-03-30T06:12:45.242Z,99.90
2019-03-30T06:14:47.706Z,99.90
2019-03-30T06:16:49.926Z,99.90
2019-03-30T06:18:52.155Z,99.90
2019-03-30T06:20:54.386Z,99.90
2019-03-30T06:22:56.617Z,99.90
2019-03-30T06:24:58.836Z,99.90
2019-03-30T06:27:01.087Z,99.90
2019-03-30T06:29:03.401Z,99.90
2019-03-30T06:31:05.626Z,99.90
2019-03-30T06:33:07.862Z,99.90
2019-03-30T06:35:10.092Z,99.90
2019-03-30T06:37:12.317Z,99.90
2019-03-30T06:39:14.542Z,99.90
2019-03-30T06:41:17.404Z,99.90
2019-03-30T06:43:19.621Z,99.90
2019-03-30T06:45:22.097Z,99.90
2019-03-30T06:47:24.316Z,99.90
2019-03-30T06:49:26.542Z,99.90
2019-03-30T06:51:28.749Z,99.90
2019-03-30T06:53:30.985Z,99.90
2019-03-30T06:55:33.201Z,99.50
2019-03-30T06:57:35.427Z,97.20
2019-03-30T06:59:37.903Z,95.80
2019-03-30T07:01:40.428Z,94.30
2019-03-30T07:03:42.658Z,89.10
2019-03-30T07:05:45.174Z,89.50
2019-03-30T07:07:47.398Z,89.10
2019-03-30T07:09:51.512Z,84.20
2019-03-30T07:11:54.023Z,82.70
2019-03-30T07:13:57.310Z,82.20
2019-03-30T07:16:00.294Z,85.50
2019-03-30T07:18:02.516Z,84.20
2019-03-30T07:20:06.659Z,67.80
2019-03-30T07:22:08.886Z,75.90
2019-03-30T07:24:11.408Z,72.50
2019-03-30T07:26:13.626Z,77.50
2019-03-30T07:28:15.874Z,71.10
2019-03-30T07:30:18.094Z,76.20
2019-03-30T07:32:20.627Z,76.00
2019-03-30T07:34:22.858Z,75.00
2019-03-30T07:36:25.342Z,73.10
2019-03-30T07:38:27.572Z,67.50
2019-03-30T07:40:29.795Z,73.50
2019-03-30T07:42:32.003Z,67.30
2019-03-30T07:44:34.230Z,53.10
2019-03-30T07:46:36.438Z,56.00
2019-03-30T07:48:38.670Z,59.60
2019-03-30T07:50:40.890Z,43.80
2019-03-30T07:52:43.438Z,51.40
2019-03-30T07:54:45.666Z,65.90
2019-03-30T07:56:47.897Z,46.40
2019-03-30T07:58:50.124Z,52.30
2019-03-30T08:00:52.346Z,44.50
2019-03-30T08:02:54.663Z,27.50
2019-03-30T08:04:56.924Z,38.30
2019-03-30T08:06:59.400Z,48.20
2019-03-30T08:09:02.652Z,42.40
2019-03-30T08:11:04.867Z,38.60
2019-03-30T08:13:07.081Z,31.40
2019-03-30T08:15:09.388Z,29.60
2019-03-30T08:17:11.598Z,37.70
2019-03-30T08:19:14.228Z,16.10
2019-03-30T08:21:16.726Z,26.40
2019-03-30T08:23:19.033Z,9.90
2019-03-30T08:25:21.250Z,10.90
2019-03-30T08:27:23.462Z,17.20
2019-03-30T08:29:25.985Z,12.10
2019-03-30T08:31:28.281Z,8.40
2019-03-30T08:33:30.741Z,13.30
2019-03-30T08:35:32.956Z,7.90
2019-03-30T08:37:35.316Z,5.80
2019-03-30T08:39:37.537Z,3.80
2019-03-30T08:41:39.738Z,6.80
2019-03-30T08:43:41.972Z,4.20
2019-03-30T08:45:44.178Z,2.60
2019-03-30T08:47:46.395Z,1.00
2019-03-30T08:49:48.614Z,1.00
2019-03-30T08:51:50.830Z,6.60
2019-03-30T08:53:54.867Z,3.30
2019-03-30T08:55:57.182Z,1.00
2019-03-30T08:57:59.673Z,1.00
2019-03-30T09:00:01.894Z,1.00
2019-03-30T09:02:04.130Z,1.00
2019-03-30T09:04:06.353Z,1.00
2019-03-30T09:06:09.529Z,1.00
2019-03-30T09:08:11.774Z,1.00
2019-03-30T09:10:13.996Z,1.00
2019-03-30T09:12:16.218Z,1.00
2019-03-30T09:14:18.466Z,1.00
2019-03-30T09:16:20.737Z,1.00
2019-03-30T09:18:23.054Z,1.00
2019-03-30T09:20:25.287Z,1.00
2019-03-30T09:22:27.501Z,1.00
2019-03-30T09:24:29.825Z,1.00
2019-03-30T09:26:32.054Z,1.00
2019-03-30T09:28:34.558Z,1.00
2019-03-30T09:30:37.129Z,1.00
2019-03-30T09:32:39.350Z,1.00
2019-03-30T09:34:41.582Z,1.00
2019-03-30T09:36:43.929Z,1.00
2019-03-30T09:38:46.314Z,1.00
2019-03-30T09:40:48.530Z,1.00
2019-03-30T09:42:50.740Z,1.00
2019-03-30T09:44:52.969Z,1.00
2019-03-30T09:46:55.177Z,1.00
2019-03-30T09:48:57.401Z,1.00
2019-03-30T09:50:59.614Z,1.00
2019-03-30T09:53:02.161Z,1.00
2019-03-30T09:55:04.722Z,1.00
2019-03-30T09:57:06.944Z,1.00
2019-03-30T09:59:09.257Z,1.00
2019-03-30T10:01:11.481Z,1.00
2019-03-30T10:03:13.696Z,1.00
2019-03-30T10:05:15.900Z,1.00
2019-03-30T10:07:18.137Z,1.00
2019-03-30T10:09:20.697Z,1.00
2019-03-30T10:11:22.905Z,1.00
2019-03-30T10:13:25.117Z,1.00
2019-03-30T10:15:27.348Z,1.00
2019-03-30T10:17:29.566Z,1.00
2019-03-30T10:19:31.795Z,1.00
2019-03-30T10:21:34.102Z,1.00
2019-03-30T10:23:36.318Z,1.00
2019-03-30T10:25:38.544Z,1.00
2019-03-30T10:27:40.747Z,1.00
2019-03-30T10:29:43.027Z,1.00
2019-03-30T10:31:45.530Z,1.00
2019-03-30T10:33:47.745Z,1.00
2019-03-30T10:35:49.968Z,1.00
2019-03-30T10:37:52.190Z,1.00
2019-03-30T10:39:54.420Z,1.00
2019-03-30T10:41:56.634Z,1.00
2019-03-30T10:43:58.854Z,1.00
2019-03-30T10:46:01.074Z,1.00
2019-03-30T10:48:04.377Z,1.00
2019-03-30T10:50:06.868Z,1.00
2019-03-30T10:52:09.322Z,1.00
2019-03-30T10:54:11.537Z,1.00
2019-03-30T10:56:13.756Z,1.00
2019-03-30T10:58:15.953Z,1.00
2019-03-30T11:00:33.078Z,1.00
2019-03-30T11:02:35.289Z,1.00
2019-03-30T11:04:37.844Z,1.00
2019-03-30T11:06:40.642Z,1.00
2019-03-30T11:08:42.853Z,1.00
2019-03-30T11:10:45.378Z,1.00
2019-03-30T11:12:47.598Z,1.00
2019-03-30T11:14:50.119Z,1.00
2019-03-30T11:16:52.338Z,1.00
2019-03-30T11:18:54.554Z,1.00
2019-03-30T11:20:56.777Z,1.00
2019-03-30T11:22:59.098Z,1.00
2019-03-30T11:25:07.643Z,1.00
2019-03-30T11:27:05.437Z,1.00
2019-03-30T11:29:07.675Z,1.00
2019-03-30T11:31:10.184Z,1.00
2019-03-30T11:33:12.413Z,1.00
2019-03-30T11:35:14.630Z,1.00
2019-03-30T11:37:16.850Z,1.00
2019-03-30T11:39:19.073Z,1.00
2019-03-30T11:41:24.721Z,1.00
2019-03-30T11:43:25.408Z,1.00
2019-03-30T11:45:27.634Z,1.00
2019-03-30T11:47:30.168Z,1.00
2019-03-30T11:49:32.387Z,1.00
2019-03-30T11:51:34.585Z,1.00
2019-03-30T11:53:36.814Z,1.00
2019-03-30T11:55:39.042Z,1.00
2019-03-30T11:57:41.602Z,1.00
2019-03-30T11:59:44.190Z,1.00
2019-03-30T12:01:46.401Z,1.00
2019-03-30T12:03:48.608Z,1.00
2019-03-30T12:05:51.172Z,1.00
2019-03-30T12:07:53.397Z,1.00
2019-03-30T12:09:55.856Z,1.00
2019-03-30T12:11:58.075Z,1.00
2019-03-30T12:14:00.286Z,1.00
2019-03-30T12:16:02.509Z,1.00
2019-03-30T12:18:04.741Z,1.00
2019-03-30T12:20:07.077Z,1.00
2019-03-30T12:22:09.289Z,1.00
2019-03-30T12:24:11.502Z,1.00
2019-03-30T12:26:13.727Z,1.00
2019-03-30T12:28:15.938Z,1.00
2019-03-30T12:30:18.209Z,1.00
2019-03-30T12:32:20.422Z,1.00
2019-03-30T12:34:22.918Z,1.00
2019-03-30T12:36:25.146Z,1.00
2019-03-30T12:38:27.363Z,1.00
2019-03-30T12:40:29.586Z,1.00
2019-03-30T12:42:31.812Z,1.00
2019-03-30T12:44:34.146Z,1.00
2019-03-30T12:46:36.349Z,1.00
2019-03-30T12:48:38.564Z,1.00
2019-03-30T12:50:40.790Z,1.00
2019-03-30T12:52:43.004Z,1.00
2019-03-30T12:54:45.242Z,1.00
2019-03-30T12:56:47.469Z,1.00
2019-03-30T12:58:49.684Z,1.00
2019-03-30T13:00:52.162Z,1.00
2019-03-30T13:02:54.569Z,1.00
2019-03-30T13:04:57.087Z,1.00
2019-03-30T13:06:59.302Z,1.00
2019-03-30T13:09:01.524Z,1.00
2019-03-30T13:11:06.022Z,1.00
2019-03-30T13:13:08.233Z,1.00
2019-03-30T13:15:10.792Z,1.00
2019-03-30T13:17:13.005Z,1.00
2019-03-30T13:19:15.217Z,1.00
2019-03-30T13:21:17.501Z,1.00
2019-03-30T13:23:20.052Z,1.00
2019-03-30T13:25:22.279Z,1.00
2019-03-30T13:27:24.806Z,1.00
2019-03-30T13:29:27.022Z,1.00
2019-03-30T13:31:29.246Z,1.00
2019-03-30T13:33:31.458Z,1.00
2019-03-30T13:35:33.680Z,1.00
2019-03-30T13:37:35.901Z,1.00
2019-03-30T13:39:38.206Z,1.00
2019-03-30T13:41:40.830Z,1.00
2019-03-30T13:43:43.082Z,1.00
2019-03-30T13:45:45.289Z,1.00
2019-03-30T13:47:47.486Z,1.00
2019-03-30T13:49:49.701Z,1.00
2019-03-30T13:51:51.926Z,1.00
2019-03-30T13:53:54.146Z,1.00
2019-03-30T13:55:56.390Z,1.00
2019-03-30T13:57:58.602Z,1.00
2019-03-30T14:00:01.160Z,1.00
2019-03-30T14:02:03.381Z,1.00
2019-03-30T14:04:05.597Z,1.00
2019-03-30T14:06:07.821Z,1.00
2019-03-30T14:08:10.042Z,1.00
2019-03-30T14:10:13.100Z,1.00
2019-03-30T14:12:15.517Z,1.00
2019-03-30T14:14:17.733Z,1.00
2019-03-30T14:16:19.958Z,1.00
2019-03-30T14:18:22.174Z,1.00
2019-03-30T14:20:24.740Z,1.00
2019-03-30T14:22:26.974Z,1.00
2019-03-30T14:24:29.190Z,1.00
2019-03-30T14:26:32.004Z,1.00
2019-03-30T14:28:34.697Z,1.00
2019-03-30T14:30:37.457Z,1.00
2019-03-30T14:32:40.108Z,1.00
2019-03-30T14:34:42.585Z,1.00
2019-03-30T14:36:45.166Z,1.00
2019-03-30T14:38:48.144Z,1.00
2019-03-30T14:40:51.964Z,1.00
2019-03-30T14:42:55.032Z,1.00
2019-03-30T14:44:57.669Z,1.00
2019-03-30T14:47:00.117Z,1.00
2019-03-30T14:49:02.670Z,1.00
2019-03-30T14:51:05.189Z,1.00
2019-03-30T14:53:07.410Z,1.00
2019-03-30T14:55:09.716Z,1.00
2019-03-30T14:57:12.014Z,1.00
2019-03-30T14:59:14.509Z,1.00
2019-03-30T15:01:16.946Z,1.00
2019-03-30T15:03:19.426Z,1.00
2019-03-30T15:05:21.638Z,1.00
2019-03-30T15:07:23.866Z,1.00
2019-03-30T15:09:26.086Z,1.00
2019-03-30T15:11:28.313Z,1.00
2019-03-30T15:13:30.533Z,1.00
2019-03-30T15:15:32.740Z,1.00
2019-03-30T15:17:34.969Z,1.00
2019-03-30T15:19:37.428Z,1.00
2019-03-30T15:21:39.660Z,1.00
2019-03-30T15:23:41.876Z,1.00
2019-03-30T15:25:44.097Z,1.00
2019-03-30T15:27:46.315Z,1.00
2019-03-30T15:29:48.525Z,1.00
2019-03-30T15:31:50.755Z,1.00
2019-03-30T15:33:53.466Z,1.00
2019-03-30T15:35:56.075Z,1.00
2019-03-30T15:37:58.302Z,1.00
2019-03-30T15:40:00.544Z,1.00
2019-03-30T15:42:02.930Z,1.00
2019-03-30T15:44:05.207Z,1.00
2019-03-30T15:46:07.450Z,1.00
2019-03-30T15:48:09.674Z,1.00
2019-03-30T15:50:11.951Z,1.00
2019-03-30T15:52:14.529Z,1.00
2019-03-30T15:54:17.166Z,1.00
2019-03-30T15:56:19.413Z,1.00
2019-03-30T15:58:21.638Z,1.00
2019-03-30T16:00:23.849Z,1.00
2019-03-30T16:02:26.074Z,1.00
2019-03-30T16:04:28.290Z,1.00
2019-03-30T16:06:30.492Z,1.00
2019-03-30T16:08:32.712Z,1.00
2019-03-30T16:10:34.921Z,1.00
2019-03-30T16:12:37.148Z,1.00
2019-03-30T16:14:39.358Z,1.00
2019-03-30T16:16:41.568Z,1.00
2019-03-30T16:18:43.799Z,1.00
2019-03-30T16:20:46.013Z,1.00
2019-03-30T16:22:48.235Z,1.00
2019-03-30T16:24:50.450Z,1.00
2019-03-30T16:26:52.663Z,1.00
2019-03-30T16:28:54.872Z,1.00
2019-03-30T16:30:57.087Z,1.00
2019-03-30T16:32:59.313Z,1.00
2019-03-30T16:35:01.834Z,1.00
2019-03-30T16:37:04.054Z,1.00
2019-03-30T16:39:06.533Z,1.00
2019-03-30T16:41:09.006Z,1.00
2019-03-30T16:43:11.224Z,1.00
2019-03-30T16:45:13.442Z,1.00
2019-03-30T16:47:15.698Z,1.00
2019-03-30T16:49:17.913Z,1.00
2019-03-30T16:51:20.144Z,1.00
2019-03-30T16:53:22.377Z,1.00
2019-03-30T16:55:24.591Z,1.00
2019-03-30T16:57:27.670Z,1.00
2019-03-30T16:59:30.147Z,1.00
2019-03-30T17:01:32.365Z,1.00
2019-03-30T17:03:34.579Z,1.00
2019-03-30T17:05:36.797Z,1.00
2019-03-30T17:07:39.041Z,1.00
2019-03-30T17:09:41.558Z,1.00
2019-03-30T17:11:43.876Z,1.00
2019-03-30T17:13:46.100Z,1.00
2019-03-30T17:15:48.338Z,1.00
2019-03-30T17:17:50.569Z,1.00
2019-03-30T17:19:52.786Z,1.00
2019-03-30T17:21:55.027Z,1.00
2019-03-30T17:23:57.298Z,1.00
2019-03-30T17:25:59.538Z,1.00
2019-03-30T17:28:01.776Z,1.00
2019-03-30T17:30:04.822Z,1.00
2019-03-30T17:32:07.137Z,1.00
2019-03-30T17:34:09.370Z,1.00
2019-03-30T17:36:11.582Z,1.00
2019-03-30T17:38:14.038Z,1.00
2019-03-30T17:40:16.270Z,1.00
2019-03-30T17:42:18.481Z,1.00
2019-03-30T17:44:20.716Z,1.00
2019-03-30T17:46:22.930Z,1.00
2019-03-30T17:48:25.532Z,1.00
2019-03-30T17:50:27.755Z,1.80
2019-03-30T17:52:29.952Z,3.00
2019-03-30T17:54:32.177Z,5.40
2019-03-30T17:56:34.400Z,4.50
2019-03-30T17:58:36.873Z,5.50
2019-03-30T18:00:39.092Z,6.50
2019-03-30T18:02:41.300Z,6.60
2019-03-30T18:04:43.537Z,6.70
2019-03-30T18:06:46.002Z,6.30
2019-03-30T18:08:48.234Z,6.60
2019-03-30T18:10:50.446Z,6.10
2019-03-30T18:12:53.025Z,6.20
2019-03-30T18:14:55.529Z,5.50
2019-03-30T18:16:58.393Z,5.50
2019-03-30T18:19:00.612Z,5.20
2019-03-30T18:21:02.831Z,4.80
2019-03-30T18:23:05.319Z,3.90
2019-03-30T18:25:07.553Z,4.80
2019-03-30T18:27:10.070Z,4.70
2019-03-30T18:29:12.297Z,5.90
2019-03-30T18:31:14.509Z,6.00
2019-03-30T18:33:16.729Z,8.50
2019-03-30T18:35:18.946Z,11.20
2019-03-30T18:37:21.158Z,12.40
2019-03-30T18:39:23.732Z,14.90
2019-03-30T18:41:26.405Z,14.50
2019-03-30T18:43:48.537Z,14.60
2019-03-30T18:45:51.061Z,16.50
2019-03-30T18:47:53.976Z,15.80
2019-03-30T18:49:56.209Z,16.80
2019-03-30T18:51:58.429Z,17.40
2019-03-30T18:54:00.655Z,17.60
2019-03-30T18:56:02.878Z,17.80
2019-03-30T18:58:05.088Z,17.30
2019-03-30T19:00:07.377Z,17.90
2019-03-30T19:02:09.986Z,17.10
2019-03-30T19:04:12.213Z,17.70
2019-03-30T19:06:14.423Z,17.10
2019-03-30T19:08:16.637Z,18.40
2019-03-30T19:10:18.869Z,19.30
2019-03-30T19:12:21.080Z,19.40
2019-03-30T19:14:23.352Z,21.60
2019-03-30T19:16:25.557Z,22.30
2019-03-30T19:18:27.865Z,22.30
2019-03-30T19:20:30.076Z,22.10
2019-03-30T19:22:32.293Z,22.90
2019-03-30T19:24:34.530Z,22.30
2019-03-30T19:26:37.083Z,23.00
2019-03-30T19:28:39.276Z,22.80
2019-03-30T19:30:42.335Z,24.60
2019-03-30T19:32:45.386Z,23.80
2019-03-30T19:34:47.604Z,24.30
2019-03-30T19:36:49.886Z,24.80
2019-03-30T19:38:52.745Z,24.10
2019-03-30T19:40:54.965Z,24.00
2019-03-30T19:42:57.182Z,24.20
2019-03-30T19:44:59.401Z,25.40
2019-03-30T19:47:01.609Z,24.00
2019-03-30T19:49:04.124Z,24.20
2019-03-30T19:51:06.340Z,23.70
2019-03-30T19:53:08.566Z,24.50
2019-03-30T19:55:10.843Z,24.10
2019-03-30T19:57:13.066Z,24.50
2019-03-30T19:59:15.291Z,25.20
2019-03-30T20:01:17.505Z,24.20
2019-03-30T20:03:19.725Z,25.60
2019-03-30T20:05:21.949Z,25.80
2019-03-30T20:07:24.166Z,27.70
2019-03-30T20:09:26.402Z,28.80
2019-03-30T20:14:00.205Z,27.50
2019-03-30T20:16:02.885Z,21.90
2019-03-30T20:18:05.102Z,20.80
2019-03-30T20:20:08.044Z,19.70
2019-03-30T20:22:10.520Z,20.50
2019-03-30T20:24:12.735Z,21.50
2019-03-30T20:26:14.989Z,20.10
2019-03-30T20:28:17.188Z,18.60
2019-03-30T20:30:19.421Z,18.70
2019-03-30T20:32:21.637Z,20.10
2019-03-30T20:34:23.857Z,21.80
2019-03-30T20:36:26.129Z,22.70
2019-03-30T20:38:28.726Z,23.60
2019-03-30T20:40:30.949Z,23.40
2019-03-30T20:42:33.156Z,24.40
2019-03-30T20:44:35.380Z,25.50
2019-03-30T20:46:37.601Z,26.30
2019-03-30T20:48:39.828Z,27.90
2019-03-30T20:50:42.351Z,30.70
2019-03-30T20:52:44.631Z,30.70
2019-03-30T20:54:46.873Z,32.80
2019-03-30T20:56:49.088Z,33.80
2019-03-30T20:58:51.305Z,36.50
2019-03-30T21:00:53.533Z,38.60
2019-03-30T21:02:55.818Z,39.40
2019-03-30T21:04:58.394Z,41.00
2019-03-30T21:07:00.613Z,40.70
2019-03-30T21:09:05.538Z,42.30
2019-03-30T21:11:07.775Z,41.10
2019-03-30T21:13:09.997Z,40.70
2019-03-30T21:15:12.233Z,41.20
2019-03-30T21:17:14.451Z,40.80
2019-03-30T21:19:16.662Z,40.50
2019-03-30T21:21:18.889Z,40.50
2019-03-30T21:23:21.102Z,40.40
2019-03-30T21:25:23.339Z,40.40
2019-03-30T21:27:25.570Z,40.40
2019-03-30T21:29:27.780Z,40.80
2019-03-30T21:31:30.011Z,40.20
2019-03-30T21:33:32.291Z,41.10
2019-03-30T21:35:34.545Z,45.00
2019-03-30T21:37:36.758Z,47.10
2019-03-30T21:39:38.978Z,48.80
2019-03-30T21:41:41.201Z,52.10
2019-03-30T21:43:43.419Z,55.50
2019-03-30T21:45:45.637Z,57.00
2019-03-30T21:47:47.919Z,60.80
2019-03-30T21:49:50.121Z,58.30
2019-03-30T21:51:52.365Z,60.40
2019-03-30T21:53:54.685Z,59.80
2019-03-30T21:55:56.921Z,63.30
2019-03-30T21:57:59.480Z,59.90
2019-03-30T22:00:09.929Z,58.10
2019-03-30T22:02:05.834Z,59.10
2019-03-30T22:04:08.048Z,56.30
2019-03-30T22:06:10.277Z,59.00
2019-03-30T22:08:12.489Z,63.10
2019-03-30T22:10:19.045Z,64.30
2019-03-30T22:12:21.279Z,64.80
2019-03-30T22:14:23.499Z,66.60
2019-03-30T22:16:25.735Z,67.30
2019-03-30T22:18:27.946Z,66.40
2019-03-30T22:20:30.153Z,66.90
2019-03-30T22:22:32.369Z,67.70
2019-03-30T22:24:34.590Z,68.80
2019-03-30T22:26:36.819Z,71.40
2019-03-30T22:28:39.033Z,69.60
2019-03-30T22:30:41.244Z,69.20
2019-03-30T22:32:43.464Z,74.10
2019-03-30T22:34:45.693Z,74.10
2019-03-30T22:36:47.900Z,73.10
2019-03-30T22:38:50.133Z,73.50
2019-03-30T22:40:52.441Z,75.10
2019-03-30T22:42:54.661Z,75.20
2019-03-30T22:44:56.878Z,74.80
2019-03-30T22:46:59.097Z,72.60
2019-03-30T22:49:01.308Z,72.60
2019-03-30T22:51:03.529Z,73.80
2019-03-30T22:53:05.750Z,73.90
2019-03-30T22:55:07.977Z,73.60
2019-03-30T22:57:10.230Z,72.60
2019-03-30T22:59:12.443Z,73.90
2019-03-30T23:01:17.206Z,73.10
2019-03-30T23:03:19.409Z,70.90
2019-03-30T23:05:21.616Z,71.50
2019-03-30T23:07:23.841Z,75.80
2019-03-30T23:09:26.054Z,74.60
2019-03-30T23:11:28.633Z,73.80
2019-03-30T23:13:30.854Z,75.00
2019-03-30T23:15:33.402Z,75.90
2019-03-30T23:17:35.628Z,76.70
2019-03-30T23:19:38.141Z,71.10
2019-03-30T23:21:40.621Z,73.50
2019-03-30T23:23:43.453Z,73.60
2019-03-30T23:25:45.677Z,68.30
2019-03-30T23:27:48.194Z,65.70
2019-03-30T23:29:50.682Z,62.90
2019-03-30T23:31:52.904Z,66.20
2019-03-30T23:33:55.116Z,68.60
2019-03-30T23:35:57.329Z,71.10
2019-03-30T23:37:59.558Z,73.30
2019-03-30T23:40:01.781Z,73.20
2019-03-30T23:42:04.269Z,73.10
2019-03-30T23:44:06.485Z,70.90
2019-03-30T23:46:09.121Z,72.60
2019-03-30T23:48:11.354Z,79.90
2019-03-30T23:50:13.575Z,80.10
2019-03-30T23:52:15.803Z,79.40
2019-03-30T23:54:18.021Z,81.10
2019-03-30T23:56:21.653Z,84.60
2019-03-30T23:58:23.873Z,83.40
